Time;durP1;ratioP1;P1;durP2;ratioP2;P2;SDS_P1;SDS_P2;PMS_P1;PMS_P2;Temp;Humidity;BMP_temperature;BMP_pressure;BME280_temperature;BME280_humidity;BME280_pressure;Samples;Min_cycle;Max_cycle;Signal;HPM_P1;HPM_P2
2022/06/26 00:01:07;;;;;;;7.13;3.60;;;16.90;99.90;;;;;;5120142;28;20246;-44
2022/06/26 00:03:33;;;;;;;7.00;4.20;;;16.90;99.90;;;;;;5116782;28;20179;-39
2022/06/26 00:05:59;;;;;;;5.47;4.27;;;16.90;99.90;;;;;;5116411;28;20178;-39
2022/06/26 00:08:25;;;;;;;5.00;3.87;;;16.90;99.90;;;;;;5097640;28;20229;-39
2022/06/26 00:10:53;;;;;;;4.80;4.13;;;16.90;99.90;;;;;;5116069;28;20177;-38
2022/06/26 00:13:19;;;;;;;4.03;3.57;;;16.90;99.90;;;;;;5115918;28;20285;-41
2022/06/26 00:15:45;;;;;;;4.13;3.73;;;16.90;99.90;;;;;;5115931;28;20261;-42
2022/06/26 00:18:11;;;;;;;3.90;3.50;;;16.90;99.90;;;;;;5115938;28;20186;-40
2022/06/26 00:20:37;;;;;;;4.30;3.27;;;16.90;99.90;;;;;;5116182;28;20182;-41
2022/06/26 00:23:02;;;;;;;4.80;4.20;;;16.90;99.90;;;;;;5115765;28;20216;-40
2022/06/26 00:25:28;;;;;;;5.73;3.77;;;16.80;99.90;;;;;;5116120;28;20177;-41
2022/06/26 00:27:54;;;;;;;4.30;3.90;;;16.90;99.90;;;;;;5115627;28;20194;-39
2022/06/26 00:30:20;;;;;;;3.90;3.13;;;16.80;99.90;;;;;;5115892;28;20202;-41
2022/06/26 00:32:46;;;;;;;3.70;3.40;;;16.80;99.90;;;;;;5115612;28;20540;-40
2022/06/26 00:35:12;;;;;;;5.33;3.50;;;16.70;99.90;;;;;;5097308;28;20178;-39
2022/06/26 00:37:37;;;;;;;5.80;4.00;;;16.70;99.90;;;;;;5115746;28;20182;-41
2022/06/26 00:40:04;;;;;;;4.67;4.13;;;16.70;99.90;;;;;;5097197;28;20275;-41
2022/06/26 00:42:29;;;;;;;4.57;4.10;;;16.70;99.90;;;;;;5116152;28;20182;-41
2022/06/26 00:44:56;;;;;;;8.67;4.50;;;16.70;99.90;;;;;;5115647;28;20186;-39
2022/06/26 00:47:22;;;;;;;4.27;3.87;;;16.70;99.90;;;;;;5115331;28;20194;-42
2022/06/26 00:49:49;;;;;;;4.37;3.80;;;16.60;99.90;;;;;;5115185;28;20269;-42
2022/06/26 00:52:15;;;;;;;4.03;3.50;;;16.70;99.90;;;;;;5115204;28;20219;-39
2022/06/26 00:54:41;;;;;;;4.40;4.00;;;16.60;99.90;;;;;;5115162;28;20279;-40
2022/06/26 00:57:07;;;;;;;4.40;4.00;;;16.50;99.90;;;;;;5115109;28;20261;-41
2022/06/26 00:59:33;;;;;;;4.63;3.67;;;16.50;99.90;;;;;;5114992;28;20224;-37
2022/06/26 01:01:59;;;;;;;4.47;3.43;;;16.50;99.90;;;;;;5096835;28;20613;-39
2022/06/26 01:04:25;;;;;;;5.17;4.67;;;16.50;99.90;;;;;;5096721;28;20594;-41
2022/06/26 01:06:51;;;;;;;5.77;4.57;;;16.50;99.90;;;;;;5115117;28;20174;-41
2022/06/26 01:09:17;;;;;;;4.03;3.63;;;16.40;99.90;;;;;;5115095;28;20218;-42
2022/06/26 01:11:44;;;;;;;7.27;3.90;;;16.40;99.90;;;;;;5096405;28;20189;-41
2022/06/26 01:14:11;;;;;;;4.50;4.10;;;16.50;99.90;;;;;;5114824;28;20622;-40
2022/06/26 01:16:41;;;;;;;5.07;4.00;;;16.40;99.90;;;;;;5096587;28;20260;-42
2022/06/26 01:19:07;;;;;;;8.27;4.07;;;16.40;99.90;;;;;;5116367;28;20194;-45
2022/06/26 01:21:34;;;;;;;6.23;3.97;;;16.40;99.90;;;;;;5118178;28;20204;-45
2022/06/26 01:24:01;;;;;;;5.13;3.70;;;16.40;99.90;;;;;;5117937;28;20174;-47
2022/06/26 01:26:27;;;;;;;4.10;3.70;;;16.40;99.90;;;;;;5117344;28;20261;-47
2022/06/26 01:28:53;;;;;;;5.13;3.17;;;16.40;99.90;;;;;;5097939;28;20309;-47
2022/06/26 01:31:20;;;;;;;6.20;3.83;;;16.40;99.90;;;;;;5117361;28;20181;-46
2022/06/26 01:33:49;;;;;;;3.80;3.50;;;16.40;99.90;;;;;;5099053;28;20175;-46
2022/06/26 01:36:16;;;;;;;4.17;3.77;;;16.40;99.90;;;;;;5117672;28;20545;-47
2022/06/26 01:38:42;;;;;;;4.23;3.40;;;16.40;99.90;;;;;;5098776;28;20205;-46
2022/06/26 01:41:08;;;;;;;3.60;3.30;;;16.40;99.90;;;;;;5098517;28;20174;-44
2022/06/26 01:43:36;;;;;;;4.93;3.53;;;16.40;99.90;;;;;;5116986;28;20245;-45
2022/06/26 01:46:04;;;;;;;4.50;3.90;;;16.40;99.90;;;;;;5116969;28;20602;-48
2022/06/26 01:48:31;;;;;;;4.40;3.67;;;16.40;99.90;;;;;;5116987;28;20259;-47
2022/06/26 01:50:59;;;;;;;4.33;3.93;;;16.40;99.90;;;;;;5116810;28;20177;-46
2022/06/26 01:53:25;;;;;;;5.80;4.17;;;16.40;99.90;;;;;;5117815;28;20174;-45
2022/06/26 01:55:51;;;;;;;4.83;4.17;;;16.50;99.90;;;;;;5117785;28;20185;-46
2022/06/26 01:58:17;;;;;;;7.27;4.03;;;16.40;99.90;;;;;;5117537;28;20178;-44
2022/06/26 02:00:44;;;;;;;7.27;4.17;;;16.50;99.90;;;;;;5118085;28;20174;-45
2022/06/26 02:03:11;;;;;;;6.03;4.33;;;16.50;99.90;;;;;;5118936;28;20227;-46
2022/06/26 02:05:37;;;;;;;7.20;4.60;;;16.50;99.90;;;;;;5118029;28;20536;-46
2022/06/26 02:08:03;;;;;;;6.87;4.40;;;16.50;99.90;;;;;;5117712;28;20204;-45
2022/06/26 02:16:00;;;;;;;4.10;3.73;;;16.60;99.90;;;;;;5118361;28;20213;-45
2022/06/26 02:18:27;;;;;;;5.63;4.10;;;16.60;99.90;;;;;;5117847;28;20198;-46
2022/06/26 02:20:54;;;;;;;5.20;4.50;;;16.50;99.90;;;;;;5117659;28;20663;-45
2022/06/26 02:23:20;;;;;;;5.97;5.03;;;16.50;99.90;;;;;;5118403;28;20182;-45
2022/06/26 02:25:46;;;;;;;5.20;4.70;;;16.50;99.90;;;;;;5099350;28;20543;-45
2022/06/26 02:28:13;;;;;;;7.73;5.27;;;16.40;99.90;;;;;;5117386;28;20314;-44
2022/06/26 02:30:38;;;;;;;10.03;5.47;;;16.50;99.90;;;;;;5117432;28;20174;-46
2022/06/26 02:33:05;;;;;;;7.90;5.67;;;16.50;99.90;;;;;;5117206;28;20174;-47
2022/06/26 02:35:31;;;;;;;5.93;4.87;;;16.50;99.90;;;;;;5117491;28;20186;-46
2022/06/26 02:37:58;;;;;;;9.97;5.10;;;16.50;99.90;;;;;;5117400;28;20259;-46
2022/06/26 02:40:24;;;;;;;6.10;4.93;;;16.50;99.90;;;;;;5117035;28;20227;-45
2022/06/26 02:42:51;;;;;;;5.67;5.17;;;16.50;99.90;;;;;;5120756;28;20236;-45
2022/06/26 02:45:16;;;;;;;6.83;6.13;;;16.50;99.90;;;;;;5102779;28;20236;-45
2022/06/26 02:47:44;;;;;;;7.97;5.63;;;16.50;99.90;;;;;;5102931;28;20190;-46
2022/06/26 02:50:09;;;;;;;6.97;5.80;;;16.50;99.90;;;;;;5120908;28;20198;-45
2022/06/26 02:52:36;;;;;;;7.10;5.23;;;16.50;99.90;;;;;;5120940;28;20217;-45
2022/06/26 02:55:02;;;;;;;6.93;5.53;;;16.50;99.90;;;;;;5120802;28;20178;-46
2022/06/26 02:57:28;;;;;;;7.03;5.17;;;16.50;99.90;;;;;;5121270;28;20675;-46
2022/06/26 02:59:54;;;;;;;12.50;5.80;;;16.50;99.90;;;;;;5120422;28;20206;-44
2022/06/26 03:02:19;;;;;;;6.60;5.00;;;16.60;99.90;;;;;;5121184;28;20182;-44
2022/06/26 03:04:45;;;;;;;11.17;4.63;;;16.60;99.90;;;;;;5121150;28;20171;-46
2022/06/26 03:07:11;;;;;;;10.60;4.30;;;16.70;99.90;;;;;;5120720;28;20284;-44
2022/06/26 03:09:37;;;;;;;6.63;4.60;;;16.70;99.90;;;;;;5120677;28;20226;-39
2022/06/26 03:12:04;;;;;;;13.03;4.57;;;16.70;99.90;;;;;;5118495;28;20239;-46
2022/06/26 03:14:30;;;;;;;10.07;4.10;;;16.80;99.90;;;;;;5117788;28;20193;-41
2022/06/26 03:16:55;;;;;;;7.83;4.00;;;16.80;99.90;;;;;;5117230;28;20176;-39
2022/06/26 03:19:21;;;;;;;5.87;4.10;;;16.70;99.90;;;;;;5117037;28;20669;-42
2022/06/26 03:21:47;;;;;;;5.03;3.20;;;16.80;99.90;;;;;;5117340;28;20537;-40
2022/06/26 03:24:12;;;;;;;7.07;3.40;;;16.80;99.90;;;;;;5118980;28;20546;-42
2022/06/26 03:26:38;;;;;;;7.67;3.80;;;16.80;99.90;;;;;;5117056;28;20550;-39
2022/06/26 03:29:06;;;;;;;9.87;3.17;;;16.80;99.90;;;;;;5117048;28;20803;-46
2022/06/26 03:31:32;;;;;;;6.67;3.43;;;16.80;99.90;;;;;;5117900;28;20269;-38
2022/06/26 03:33:58;;;;;;;5.73;2.63;;;16.80;99.90;;;;;;5117280;28;20257;-40
2022/06/26 03:36:25;;;;;;;8.07;3.53;;;16.80;99.90;;;;;;5116934;28;20214;-43
2022/06/26 03:38:51;;;;;;;4.00;2.67;;;16.70;99.90;;;;;;5098377;28;20288;-39
2022/06/26 03:41:17;;;;;;;8.60;2.40;;;16.70;99.90;;;;;;5116620;28;20174;-43
2022/06/26 03:43:44;;;;;;;5.63;2.43;;;16.80;99.90;;;;;;5116527;28;20587;-41
2022/06/26 03:46:09;;;;;;;3.57;2.50;;;16.70;99.90;;;;;;5116820;28;20228;-41
2022/06/26 03:48:35;;;;;;;5.13;2.23;;;16.70;99.90;;;;;;5098132;28;20213;-40
2022/06/26 03:51:01;;;;;;;9.07;1.90;;;16.60;99.90;;;;;;5116679;28;20537;-41
2022/06/26 03:53:28;;;;;;;2.70;1.87;;;16.60;99.90;;;;;;5115859;28;20167;-39
2022/06/26 03:55:54;;;;;;;4.03;2.00;;;16.50;99.90;;;;;;5116372;28;20175;-41
2022/06/26 03:58:19;;;;;;;2.90;2.03;;;16.60;99.90;;;;;;5116381;28;20257;-40
2022/06/26 04:00:45;;;;;;;5.10;2.03;;;16.50;99.90;;;;;;5116764;28;20586;-42
2022/06/26 04:03:11;;;;;;;2.83;1.90;;;16.40;99.90;;;;;;5116759;28;20178;-41
2022/06/26 04:05:40;;;;;;;5.37;1.90;;;16.40;99.90;;;;;;5116502;28;20543;-41
2022/06/26 04:08:06;;;;;;;4.80;2.03;;;16.40;99.90;;;;;;5097688;28;20199;-42
2022/06/26 04:10:33;;;;;;;3.50;1.93;;;16.40;99.90;;;;;;5116343;28;20174;-40
2022/06/26 04:13:00;;;;;;;3.27;1.90;;;16.40;99.90;;;;;;5115991;28;20194;-41
2022/06/26 04:15:28;;;;;;;4.13;1.97;;;16.30;99.90;;;;;;5115972;28;20171;-43
2022/06/26 04:17:54;;;;;;;9.00;2.10;;;16.30;99.90;;;;;;5116213;28;20182;-42
2022/06/26 04:20:20;;;;;;;4.17;2.10;;;16.30;99.90;;;;;;5115738;28;20570;-40
2022/06/26 04:23:05;;;;;;;3.70;1.50;;;16.30;99.90;;;;;;5115734;28;20178;-41
2022/06/26 04:25:32;;;;;;;4.77;1.80;;;16.20;99.90;;;;;;5116066;28;20633;-41
2022/06/26 04:27:59;;;;;;;3.57;1.87;;;16.20;99.90;;;;;;5115693;28;20201;-41
2022/06/26 04:30:25;;;;;;;6.93;1.70;;;16.10;99.90;;;;;;5115901;28;20232;-41
2022/06/26 04:32:51;;;;;;;7.87;2.10;;;16.10;99.90;;;;;;5115676;28;20178;-42
2022/06/26 04:35:17;;;;;;;4.07;2.00;;;16.10;99.90;;;;;;5116001;28;20173;-43
2022/06/26 04:37:42;;;;;;;3.33;1.50;;;16.00;99.90;;;;;;5115965;28;20174;-42
2022/06/26 04:40:10;;;;;;;7.90;1.90;;;16.10;99.90;;;;;;5097975;28;20746;-43
2022/06/26 04:42:37;;;;;;;4.33;1.57;;;16.00;99.90;;;;;;5115901;28;20182;-41
2022/06/26 04:45:04;;;;;;;4.93;2.00;;;16.00;99.90;;;;;;5115495;28;20177;-43
2022/06/26 04:47:29;;;;;;;5.53;1.90;;;16.00;99.90;;;;;;5097059;28;20255;-44
2022/06/26 04:49:55;;;;;;;4.47;1.50;;;16.00;99.90;;;;;;5115333;28;20717;-45
2022/06/26 04:52:20;;;;;;;6.43;1.60;;;16.10;99.90;;;;;;5115500;28;20546;-43
2022/06/26 04:54:47;;;;;;;2.87;1.53;;;16.10;99.90;;;;;;5115572;28;20605;-42
2022/06/26 04:57:13;;;;;;;6.23;1.90;;;16.10;99.90;;;;;;5115246;28;20217;-41
2022/06/26 04:59:39;;;;;;;4.13;1.77;;;16.20;99.90;;;;;;5115296;28;20201;-41
2022/06/26 05:02:05;;;;;;;6.50;1.70;;;16.20;99.90;;;;;;5115586;28;20696;-38
2022/06/26 05:04:31;;;;;;;4.07;1.80;;;16.20;99.90;;;;;;5114190;28;20201;-39
2022/06/26 05:06:57;;;;;;;3.37;1.63;;;16.20;99.90;;;;;;5115437;28;20261;-44
2022/06/26 05:09:24;;;;;;;3.37;1.70;;;16.20;99.90;;;;;;5117272;28;20658;-45
2022/06/26 05:11:50;;;;;;;5.27;1.70;;;16.40;99.90;;;;;;5099148;28;20673;-44
2022/06/26 05:14:16;;;;;;;6.20;1.90;;;16.40;99.90;;;;;;5117611;28;20170;-44
2022/06/26 05:16:41;;;;;;;5.30;1.90;;;16.50;99.90;;;;;;5117352;28;20305;-45
2022/06/26 05:19:07;;;;;;;2.93;2.10;;;16.60;99.90;;;;;;5116883;28;20217;-43
2022/06/26 05:21:33;;;;;;;4.47;1.50;;;16.70;99.90;;;;;;5117123;28;20227;-45
2022/06/26 05:23:59;;;;;;;3.50;1.33;;;16.70;99.90;;;;;;5117645;28;20173;-44
2022/06/26 05:26:25;;;;;;;3.97;1.83;;;16.80;99.90;;;;;;5116980;28;20185;-43
2022/06/26 05:28:50;;;;;;;2.60;1.53;;;16.80;99.90;;;;;;5098388;28;20609;-44
2022/06/26 05:31:16;;;;;;;3.80;1.70;;;16.80;99.90;;;;;;5117342;28;20213;-44
2022/06/26 05:33:42;;;;;;;2.93;1.67;;;16.80;99.90;;;;;;5117137;28;20170;-45
2022/06/26 05:36:08;;;;;;;5.63;1.40;;;16.90;99.90;;;;;;5098633;28;20178;-45
2022/06/26 05:38:37;;;;;;;4.67;1.63;;;16.80;99.90;;;;;;5116384;28;20723;-44
2022/06/26 05:41:03;;;;;;;5.90;1.93;;;16.90;99.90;;;;;;5117146;28;20178;-45
2022/06/26 05:43:30;;;;;;;3.83;1.70;;;16.90;99.90;;;;;;5116216;28;20193;-44
2022/06/26 05:45:55;;;;;;;4.40;1.70;;;16.90;99.90;;;;;;5097982;28;20185;-45
2022/06/26 05:48:21;;;;;;;2.77;1.60;;;16.90;99.90;;;;;;5115998;28;20570;-45
2022/06/26 05:50:47;;;;;;;3.17;1.80;;;17.00;99.90;;;;;;5116786;28;20186;-45
2022/06/26 05:53:13;;;;;;;1.93;1.57;;;17.10;99.90;;;;;;5116495;28;20548;-43
2022/06/26 05:55:39;;;;;;;3.13;1.90;;;17.10;99.90;;;;;;5116225;28;20178;-44
2022/06/26 05:58:05;;;;;;;2.57;1.60;;;17.20;99.90;;;;;;5115989;28;20186;-46
2022/06/26 06:00:32;;;;;;;2.80;1.80;;;17.20;99.90;;;;;;5115585;28;20185;-45
2022/06/26 06:02:57;;;;;;;2.37;1.73;;;17.20;99.90;;;;;;5097246;28;20212;-43
2022/06/26 06:05:23;;;;;;;2.23;1.80;;;17.30;99.90;;;;;;5097458;28;20712;-46
2022/06/26 06:07:49;;;;;;;2.93;1.80;;;17.40;99.90;;;;;;5115606;28;20210;-45
2022/06/26 06:10:14;;;;;;;5.87;2.03;;;17.50;99.90;;;;;;5115550;28;20197;-44
2022/06/26 06:12:40;;;;;;;4.37;1.73;;;17.60;99.90;;;;;;5114722;28;20228;-46
2022/06/26 06:15:06;;;;;;;2.47;1.53;;;17.80;99.90;;;;;;5114557;28;20178;-47
2022/06/26 06:17:40;;;;;;;1.90;1.70;;;18.00;99.90;;;;;;5114772;28;20315;-44
2022/06/26 06:20:19;;;;;;;3.60;1.70;;;18.10;99.90;;;;;;5114969;28;20194;-46
2022/06/26 06:22:54;;;;;;;2.37;1.63;;;18.30;99.90;;;;;;5114415;28;20238;-45
2022/06/26 06:25:21;;;;;;;4.30;1.40;;;18.40;99.90;;;;;;5114775;28;20166;-46
2022/06/26 06:27:47;;;;;;;3.70;1.60;;;18.70;99.90;;;;;;5114683;28;20252;-47
2022/06/26 06:30:14;;;;;;;4.93;1.87;;;18.80;99.90;;;;;;5115123;28;20202;-45
2022/06/26 06:32:41;;;;;;;1.33;1.20;;;19.00;99.90;;;;;;5114896;28;20257;-44
2022/06/26 06:35:08;;;;;;;2.87;1.30;;;19.10;99.90;;;;;;5115439;28;20562;-46
2022/06/26 06:37:34;;;;;;;2.53;1.60;;;19.30;99.90;;;;;;5115218;28;20178;-44
2022/06/26 06:40:00;;;;;;;2.57;1.43;;;19.60;99.90;;;;;;5114912;28;20198;-46
2022/06/26 06:42:26;;;;;;;1.40;1.30;;;19.90;99.90;;;;;;5114880;28;20180;-44
2022/06/26 06:44:52;;;;;;;4.77;1.40;;;20.10;99.90;;;;;;5114894;28;20174;-45
2022/06/26 06:47:17;;;;;;;4.43;1.40;;;20.30;99.90;;;;;;5114950;28;20236;-46
2022/06/26 06:49:43;;;;;;;3.80;1.20;;;20.50;99.90;;;;;;5114858;28;20201;-46
2022/06/26 06:52:09;;;;;;;1.47;1.17;;;20.60;99.90;;;;;;5114466;28;20175;-46
2022/06/26 06:54:35;;;;;;;2.30;1.37;;;20.60;99.90;;;;;;5114446;28;20205;-46
2022/06/26 06:57:00;;;;;;;3.50;1.20;;;20.60;99.90;;;;;;5114361;28;20183;-46
2022/06/26 06:59:26;;;;;;;1.90;1.20;;;20.60;99.90;;;;;;5095550;28;20755;-45
2022/06/26 07:01:52;;;;;;;2.00;1.17;;;20.60;99.90;;;;;;5114166;28;20175;-45
2022/06/26 07:04:18;;;;;;;3.67;1.17;;;20.50;99.90;;;;;;5095732;28;20266;-44
2022/06/26 07:06:44;;;;;;;3.87;1.83;;;20.50;99.90;;;;;;5114200;28;20178;-45
2022/06/26 07:09:10;;;;;;;3.70;1.10;;;20.50;99.90;;;;;;5114001;28;20197;-45
2022/06/26 07:11:36;;;;;;;2.07;1.00;;;20.50;99.90;;;;;;5114044;28;20189;-45
2022/06/26 07:14:02;;;;;;;3.33;1.10;;;20.50;99.90;;;;;;5114113;28;20171;-45
2022/06/26 07:16:28;;;;;;;2.67;1.20;;;20.50;99.90;;;;;;5114924;28;20188;-46
2022/06/26 07:18:54;;;;;;;3.03;0.90;;;20.60;99.90;;;;;;5114042;28;20277;-47
2022/06/26 07:21:20;;;;;;;1.43;1.00;;;20.80;99.90;;;;;;5114425;28;20201;-44
2022/06/26 07:23:45;;;;;;;1.43;1.10;;;21.00;99.90;;;;;;5114044;28;20650;-45
2022/06/26 07:26:11;;;;;;;1.50;0.97;;;21.10;99.90;;;;;;5114402;28;20509;-45
2022/06/26 07:28:36;;;;;;;1.63;0.93;;;21.10;99.90;;;;;;5116384;28;20210;-45
2022/06/26 07:31:02;;;;;;;2.03;1.13;;;21.10;99.90;;;;;;5082842;28;20178;-44
2022/06/26 07:36:12;;;;;;;1.63;1.03;;;21.40;99.90;;;;;;5117298;28;20532;-41
2022/06/26 07:38:38;;;;;;;1.53;1.20;;;21.50;99.90;;;;;;5116766;28;20190;-40
2022/06/26 07:41:04;;;;;;;1.77;1.20;;;21.70;99.90;;;;;;5098794;28;20178;-40
2022/06/26 07:43:30;;;;;;;1.50;1.20;;;21.80;99.90;;;;;;5098508;28;20585;-42
2022/06/26 07:45:57;;;;;;;2.70;0.80;;;22.00;99.90;;;;;;5116655;28;20518;-40
2022/06/26 07:48:23;;;;;;;3.47;1.13;;;22.00;99.90;;;;;;5098325;28;20213;-40
2022/06/26 07:50:48;;;;;;;1.30;0.90;;;21.90;99.90;;;;;;5098388;28;20178;-40
2022/06/26 07:53:14;;;;;;;3.20;1.13;;;21.80;99.90;;;;;;5116521;28;20178;-42
2022/06/26 07:55:40;;;;;;;3.33;1.20;;;21.80;99.90;;;;;;5116370;28;20167;-40
2022/06/26 07:58:05;;;;;;;2.23;1.40;;;21.80;99.90;;;;;;5116606;28;20653;-41
2022/06/26 08:00:31;;;;;;;3.43;1.23;;;21.60;99.90;;;;;;5116260;28;20182;-41
2022/06/26 08:03:10;;;;;;;2.47;1.10;;;21.60;99.90;;;;;;5116323;28;20192;-38
2022/06/26 08:05:37;;;;;;;1.83;1.17;;;21.60;99.90;;;;;;5116572;28;20170;-41
2022/06/26 08:08:04;;;;;;;2.60;1.30;;;21.70;99.90;;;;;;5116278;28;20231;-43
2022/06/26 08:10:30;;;;;;;1.60;1.17;;;21.70;99.90;;;;;;5116051;28;20661;-42
2022/06/26 08:12:56;;;;;;;1.77;1.20;;;21.70;99.90;;;;;;5116011;28;20213;-40
2022/06/26 08:15:22;;;;;;;3.47;1.30;;;21.70;99.90;;;;;;5115923;28;20217;-39
2022/06/26 08:17:48;;;;;;;2.57;1.40;;;21.70;99.90;;;;;;5115999;28;20174;-43
2022/06/26 08:20:13;;;;;;;2.90;1.10;;;21.70;99.90;;;;;;5115849;28;20784;-42
2022/06/26 08:22:39;;;;;;;2.20;1.13;;;21.70;99.90;;;;;;5115841;28;20664;-42
2022/06/26 08:25:05;;;;;;;1.93;1.10;;;21.70;99.90;;;;;;5116092;28;20182;-43
2022/06/26 08:27:30;;;;;;;3.17;1.30;;;21.60;99.90;;;;;;5116235;28;20190;-40
2022/06/26 08:29:56;;;;;;;2.73;1.10;;;21.70;99.90;;;;;;5115643;28;20195;-42
2022/06/26 08:32:22;;;;;;;1.77;1.00;;;21.70;99.90;;;;;;5115983;28;20181;-43
2022/06/26 08:34:47;;;;;;;3.97;1.53;;;21.70;99.90;;;;;;5116295;28;20670;-43
2022/06/26 08:37:13;;;;;;;2.17;0.90;;;21.70;99.90;;;;;;5125691;22;20230;-40
2022/06/26 08:39:38;;;;;;;1.07;0.90;;;21.80;99.90;;;;;;5095557;28;20225;-39
2022/06/26 08:42:05;;;;;;;2.60;1.10;;;21.80;99.90;;;;;;5095526;28;20166;-40
2022/06/26 08:44:32;;;;;;;1.90;1.17;;;21.90;99.90;;;;;;5095397;28;20614;-40
2022/06/26 08:46:59;;;;;;;3.43;1.00;;;22.00;99.90;;;;;;5095100;28;20243;-39
2022/06/26 08:49:25;;;;;;;1.97;1.00;;;22.10;99.90;;;;;;5095295;28;20201;-39
2022/06/26 08:51:51;;;;;;;2.27;0.97;;;22.30;99.90;;;;;;5095151;28;20182;-40
2022/06/26 08:54:18;;;;;;;1.30;1.00;;;22.40;99.90;;;;;;5095696;28;20199;-39
2022/06/26 08:56:46;;;;;;;2.10;1.00;;;22.50;99.90;;;;;;5093820;28;20206;-39
2022/06/26 08:59:14;;;;;;;2.50;1.03;;;22.60;99.90;;;;;;5094862;28;20202;-40
2022/06/26 09:01:41;;;;;;;1.53;1.00;;;22.50;99.90;;;;;;5095107;28;20187;-40
2022/06/26 09:04:08;;;;;;;1.80;1.30;;;22.50;99.90;;;;;;5095107;28;20214;-38
2022/06/26 09:06:35;;;;;;;1.33;0.90;;;22.60;99.90;;;;;;5095090;28;20175;-40
2022/06/26 09:09:11;;;;;;;2.70;0.97;;;22.60;99.90;;;;;;5094763;28;20693;-41
2022/06/26 09:11:38;;;;;;;1.07;0.90;;;22.60;99.90;;;;;;5094985;28;20530;-41
2022/06/26 09:14:04;;;;;;;2.17;0.90;;;22.70;99.90;;;;;;5094583;28;20186;-39
2022/06/26 09:16:31;;;;;;;2.23;0.97;;;22.70;99.90;;;;;;5093827;28;20178;-39
2022/06/26 09:19:06;;;;;;;5.60;0.93;;;22.70;99.90;;;;;;5093520;28;20203;-41
2022/06/26 09:21:32;;;;;;;2.50;0.97;;;22.70;99.90;;;;;;5094861;28;20163;-38
2022/06/26 09:23:58;;;;;;;1.83;0.70;;;22.60;99.90;;;;;;5094363;28;20175;-39
2022/06/26 09:26:23;;;;;;;2.90;1.00;;;22.60;99.90;;;;;;5094783;28;20175;-41
2022/06/26 09:28:49;;;;;;;3.17;1.00;;;22.60;99.90;;;;;;5094397;28;20233;-40
2022/06/26 09:31:20;;;;;;;1.70;1.00;;;22.60;99.90;;;;;;5094310;28;20171;-41
2022/06/26 09:33:45;;;;;;;2.90;1.00;;;22.70;99.90;;;;;;5094618;28;20526;-39
2022/06/26 09:36:16;;;;;;;2.37;1.13;;;22.80;99.90;;;;;;5094373;28;20179;-37
2022/06/26 09:38:51;;;;;;;1.57;1.10;;;22.90;99.90;;;;;;5093898;28;20218;-38
2022/06/26 09:41:27;;;;;;;2.77;1.10;;;23.00;99.90;;;;;;5094681;28;20162;-39
2022/06/26 09:43:55;;;;;;;2.50;1.20;;;23.10;99.90;;;;;;5092817;28;20163;-40
2022/06/26 09:46:29;;;;;;;3.33;1.10;;;23.10;99.90;;;;;;5094262;28;20182;-41
2022/06/26 09:48:57;;;;;;;2.30;0.87;;;23.20;99.90;;;;;;5093803;28;20288;-39
2022/06/26 09:51:23;;;;;;;1.60;1.07;;;23.30;99.90;;;;;;5093854;28;20174;-39
2022/06/26 09:53:49;;;;;;;4.43;1.03;;;23.30;99.90;;;;;;5095849;28;20179;-40
2022/06/26 09:56:15;;;;;;;1.63;1.10;;;23.30;99.90;;;;;;5094166;28;20196;-40
2022/06/26 09:58:41;;;;;;;2.43;0.87;;;23.30;99.90;;;;;;5093745;28;20564;-39
2022/06/26 10:06:36;;;;;;;4.60;1.23;;;23.00;99.90;;;;;;5093879;28;20166;-40
2022/06/26 10:09:09;;;;;;;3.27;1.00;;;23.00;99.90;;;;;;5093789;28;20215;-41
2022/06/26 10:11:37;;;;;;;1.33;1.03;;;22.90;99.90;;;;;;5093920;28;20154;-41
2022/06/26 10:14:17;;;;;;;2.77;1.27;;;22.90;99.90;;;;;;5093656;28;20166;-38
2022/06/26 10:17:11;;;;;;;1.60;1.20;;;22.90;99.90;;;;;;5093899;28;20196;-39
2022/06/26 10:19:50;;;;;;;2.83;1.20;;;22.90;99.90;;;;;;5093633;28;20674;-40
2022/06/26 10:22:15;;;;;;;1.80;0.90;;;22.90;99.90;;;;;;5093585;28;20170;-39
2022/06/26 10:24:58;;;;;;;1.63;1.00;;;22.80;99.90;;;;;;5093567;28;20536;-40
2022/06/26 10:27:25;;;;;;;3.00;0.93;;;22.80;99.90;;;;;;5092211;28;20278;-38
2022/06/26 10:30:01;;;;;;;1.33;0.90;;;22.80;99.90;;;;;;5093379;28;20191;-39
2022/06/26 10:32:26;;;;;;;2.80;1.30;;;22.80;99.90;;;;;;5094547;28;20159;-39
2022/06/26 10:34:56;;;;;;;1.80;1.20;;;22.80;99.90;;;;;;5094062;28;20178;-41
2022/06/26 10:37:22;;;;;;;1.53;1.30;;;22.70;99.90;;;;;;5093325;28;20194;-40
2022/06/26 10:39:51;;;;;;;3.00;1.37;;;22.70;99.90;;;;;;5093634;28;20191;-40
2022/06/26 10:45:09;;;;;;;1.50;1.10;;;22.60;99.90;;;;;;5093670;28;20624;-41
2022/06/26 10:47:41;;;;;;;5.10;1.40;;;22.60;99.90;;;;;;5093211;28;20661;-39
2022/06/26 10:50:30;;;;;;;3.97;1.30;;;22.60;99.90;;;;;;5093251;28;20684;-39
2022/06/26 10:53:23;;;;;;;3.60;1.20;;;22.60;99.90;;;;;;5093568;28;20619;-39
2022/06/26 10:55:56;;;;;;;3.33;1.47;;;22.50;99.90;;;;;;5093800;28;20155;-40
2022/06/26 10:58:22;;;;;;;3.30;1.43;;;22.40;99.90;;;;;;5093076;28;20642;-40
2022/06/26 11:00:48;;;;;;;1.40;1.23;;;22.40;99.90;;;;;;5093201;28;20179;-40
2022/06/26 11:03:15;;;;;;;1.97;1.23;;;22.30;99.90;;;;;;5095643;28;20207;-40
2022/06/26 11:05:55;;;;;;;4.03;1.40;;;22.30;99.90;;;;;;5097112;28;20178;-40
2022/06/26 11:08:42;;;;;;;1.87;1.10;;;22.30;99.90;;;;;;5097130;28;20198;-40
2022/06/26 11:11:15;;;;;;;1.90;1.00;;;22.20;99.90;;;;;;5097301;28;20212;-40
2022/06/26 11:13:49;;;;;;;2.90;1.17;;;22.20;99.90;;;;;;5096932;28;20194;-41
2022/06/26 11:16:15;;;;;;;2.77;1.27;;;22.20;99.90;;;;;;5096829;28;20219;-40
2022/06/26 11:18:41;;;;;;;3.30;1.30;;;22.20;99.90;;;;;;5096753;28;20194;-41
2022/06/26 11:21:06;;;;;;;1.53;1.17;;;22.10;99.90;;;;;;5097035;28;20533;-40
2022/06/26 11:23:34;;;;;;;1.67;1.20;;;22.10;99.90;;;;;;5096683;28;20175;-39
2022/06/26 11:26:09;;;;;;;1.30;0.90;;;22.10;99.90;;;;;;5096783;28;20307;-41
2022/06/26 11:28:41;;;;;;;3.20;1.20;;;22.20;99.90;;;;;;5096795;28;20206;-40
2022/06/26 11:31:11;;;;;;;2.23;1.13;;;22.20;99.90;;;;;;5097008;28;20160;-39
2022/06/26 11:33:40;;;;;;;2.53;1.10;;;22.30;99.90;;;;;;5096701;28;20171;-40
2022/06/26 11:36:08;;;;;;;3.60;1.47;;;22.30;99.90;;;;;;5097846;28;20171;-41
2022/06/26 11:38:36;;;;;;;3.63;1.20;;;22.40;99.90;;;;;;5096679;28;20252;-40
2022/06/26 11:41:05;;;;;;;2.93;1.10;;;22.40;99.90;;;;;;5096528;28;20175;-40
2022/06/26 11:43:31;;;;;;;3.50;1.10;;;22.50;99.90;;;;;;5096426;28;20187;-40
2022/06/26 11:45:59;;;;;;;1.70;0.97;;;22.60;99.90;;;;;;5096651;28;20186;-40
2022/06/26 11:48:25;;;;;;;2.43;1.27;;;22.70;99.90;;;;;;5096109;28;20230;-39
2022/06/26 11:50:53;;;;;;;1.50;1.10;;;22.80;99.90;;;;;;5096283;28;20175;-40
2022/06/26 11:53:23;;;;;;;2.93;1.00;;;22.90;99.90;;;;;;5096604;28;20253;-41
2022/06/26 11:55:54;;;;;;;1.63;1.10;;;22.90;99.90;;;;;;5097322;28;20167;-39
2022/06/26 11:58:23;;;;;;;2.47;0.90;;;22.90;99.90;;;;;;5096209;28;20166;-38
2022/06/26 12:00:49;;;;;;;5.00;1.27;;;22.90;99.90;;;;;;5096302;28;20159;-40
2022/06/26 12:03:16;;;;;;;1.97;1.03;;;23.00;99.90;;;;;;5096215;28;20200;-38
2022/06/26 12:05:45;;;;;;;2.67;1.10;;;22.90;99.90;;;;;;5095899;28;20181;-40
2022/06/26 12:08:18;;;;;;;2.00;1.00;;;22.90;99.90;;;;;;5095782;28;20210;-39
2022/06/26 12:10:49;;;;;;;2.30;1.43;;;22.80;99.90;;;;;;5100339;28;20177;-40
2022/06/26 12:13:26;;;;;;;1.20;1.00;;;22.80;99.90;;;;;;5104245;28;20504;-40
2022/06/26 12:15:53;;;;;;;1.50;1.07;;;22.80;99.90;;;;;;5095976;28;20176;-39
2022/06/26 12:18:19;;;;;;;1.73;0.97;;;22.70;99.90;;;;;;5095891;28;20179;-39
2022/06/26 12:20:49;;;;;;;2.33;1.30;;;22.70;99.90;;;;;;5095671;28;20595;-39
2022/06/26 12:23:14;;;;;;;2.83;1.10;;;22.60;99.90;;;;;;5095554;28;20171;-40
2022/06/26 12:25:44;;;;;;;1.00;0.90;;;22.60;99.90;;;;;;5095445;28;20185;-40
2022/06/26 12:28:23;;;;;;;1.57;1.03;;;22.60;99.90;;;;;;5095186;28;20602;-41
2022/06/26 12:30:48;;;;;;;2.30;1.10;;;22.60;99.90;;;;;;5094101;28;20171;-40
2022/06/26 12:33:14;;;;;;;2.57;1.30;;;22.60;99.90;;;;;;5095230;28;20583;-39
2022/06/26 12:35:40;;;;;;;2.23;1.00;;;22.60;99.90;;;;;;5095212;28;20183;-38
2022/06/26 12:38:06;;;;;;;3.07;0.93;;;22.80;99.90;;;;;;5095229;28;20205;-41
2022/06/26 12:40:34;;;;;;;2.87;1.13;;;22.80;99.90;;;;;;5095353;28;20650;-40
2022/06/26 12:43:00;;;;;;;2.20;1.20;;;22.90;99.90;;;;;;5095954;28;20198;-40
2022/06/26 12:45:26;;;;;;;3.07;1.30;;;22.90;99.90;;;;;;5095986;28;20634;-39
2022/06/26 12:47:52;;;;;;;2.83;1.13;;;23.00;99.90;;;;;;5095183;28;20194;-39
2022/06/26 12:50:17;;;;;;;2.33;1.23;;;23.10;99.90;;;;;;5093529;28;20190;-38
2022/06/26 12:52:43;;;;;;;2.40;1.20;;;23.30;99.90;;;;;;5095088;28;20179;-40
2022/06/26 12:55:10;;;;;;;2.67;1.43;;;23.30;99.90;;;;;;5094852;28;20703;-41
2022/06/26 12:57:35;;;;;;;2.57;1.20;;;23.40;99.90;;;;;;5094963;28;20182;-40
2022/06/26 13:00:04;;;;;;;4.07;1.17;;;23.40;99.90;;;;;;5094705;28;20537;-37
2022/06/26 13:02:30;;;;;;;2.57;1.20;;;23.40;99.90;;;;;;5096349;28;20214;-39